Time;durP1;ratioP1;P1;durP2;ratioP2;P2;SDS_P1;SDS_P2;PMS_P1;PMS_P2;Temp;Humidity;BMP_temperature;BMP_pressure;BME280_temperature;BME280_humidity;BME280_pressure;Samples;Min_cycle;Max_cycle;Signal;HPM_P1;HPM_P2
2021/03/22 00:01:17;;;;;;;21.73;8.47;;;4.30;99.90;;;;;;4869738;29;20197;-85
2021/03/22 00:03:43;;;;;;;15.43;7.83;;;4.30;99.90;;;;;;4866568;29;20196;-85
2021/03/22 00:06:09;;;;;;;22.37;9.20;;;4.30;99.90;;;;;;4850715;29;20826;-85
2021/03/22 00:08:34;;;;;;;19.43;8.80;;;4.20;99.90;;;;;;4884669;29;21520;-84
2021/03/22 00:11:01;;;;;;;23.03;8.90;;;4.20;99.90;;;;;;4864708;29;20480;-86
2021/03/22 00:13:27;;;;;;;18.60;8.57;;;4.20;99.90;;;;;;4865860;29;20270;-85
2021/03/22 00:15:57;;;;;;;17.70;7.60;;;4.20;99.90;;;;;;4862991;29;20536;-85
2021/03/22 00:18:28;;;;;;;23.37;8.30;;;4.10;99.90;;;;;;4859533;29;20509;-85
2021/03/22 00:20:54;;;;;;;21.70;8.40;;;4.00;99.90;;;;;;4864305;29;20481;-85
2021/03/22 00:23:19;;;;;;;17.70;7.90;;;4.00;99.90;;;;;;4863185;29;20984;-84
2021/03/22 00:25:46;;;;;;;17.70;9.03;;;4.00;99.90;;;;;;4871013;29;20804;-84
2021/03/22 00:28:12;;;;;;;21.50;8.60;;;3.90;99.90;;;;;;4871431;29;20685;-84
2021/03/22 00:30:40;;;;;;;18.13;8.80;;;3.90;99.90;;;;;;4859418;29;20546;-85
2021/03/22 00:33:07;;;;;;;24.80;7.77;;;3.80;99.90;;;;;;4876687;29;20847;-84
2021/03/22 00:35:33;;;;;;;19.87;7.87;;;3.80;99.90;;;;;;4865049;29;20528;-85
2021/03/22 00:37:59;;;;;;;26.87;9.97;;;3.80;99.90;;;;;;4864704;29;20484;-85
2021/03/22 00:40:29;;;;;;;17.43;8.27;;;3.80;99.90;;;;;;4870268;29;20541;-84
2021/03/22 00:42:55;;;;;;;15.80;8.10;;;3.70;99.90;;;;;;4867340;29;20460;-84
2021/03/22 00:45:22;;;;;;;18.77;8.00;;;3.60;99.90;;;;;;4865144;29;20513;-84
2021/03/22 00:47:50;;;;;;;19.37;7.23;;;3.60;99.90;;;;;;4874478;29;20185;-84
2021/03/22 00:50:29;;;;;;;22.87;8.93;;;3.60;99.90;;;;;;4876594;29;20549;-85
2021/03/22 00:52:55;;;;;;;15.93;8.03;;;3.60;99.90;;;;;;4870895;29;20466;-84
2021/03/22 00:55:21;;;;;;;16.50;7.10;;;3.60;99.90;;;;;;4867177;29;20461;-84
2021/03/22 00:57:47;;;;;;;18.80;7.27;;;3.60;99.90;;;;;;4865528;29;20478;-85
2021/03/22 01:00:25;;;;;;;25.97;7.97;;;3.60;99.90;;;;;;4865731;29;20904;-84
2021/03/22 01:02:51;;;;;;;21.77;7.50;;;3.50;99.90;;;;;;4866787;29;20488;-85
2021/03/22 01:05:19;;;;;;;16.30;7.70;;;3.50;99.90;;;;;;4879923;29;20446;-85
2021/03/22 01:07:45;;;;;;;30.23;9.40;;;3.40;99.90;;;;;;4865627;29;20517;-84
2021/03/22 01:10:27;;;;;;;17.67;7.10;;;3.50;99.90;;;;;;4868479;29;20526;-84
2021/03/22 01:12:53;;;;;;;18.63;7.67;;;3.40;99.90;;;;;;4870092;29;21062;-84
2021/03/22 01:15:20;;;;;;;17.40;7.27;;;3.40;99.90;;;;;;4864275;29;20560;-84
2021/03/22 01:17:46;;;;;;;20.77;8.20;;;3.40;99.90;;;;;;4865907;29;20530;-84
2021/03/22 01:20:14;;;;;;;17.40;8.23;;;3.30;99.90;;;;;;4869002;29;20461;-84
2021/03/22 01:22:40;;;;;;;16.37;7.17;;;3.30;99.90;;;;;;4862603;29;20185;-85
2021/03/22 01:25:08;;;;;;;17.80;7.03;;;3.30;99.90;;;;;;4878144;29;20468;-84
2021/03/22 01:27:38;;;;;;;14.33;7.30;;;3.20;99.90;;;;;;4867523;29;20191;-85
2021/03/22 01:30:16;;;;;;;20.77;7.30;;;3.20;99.90;;;;;;4869274;29;20459;-85
2021/03/22 01:32:42;;;;;;;20.57;7.43;;;3.20;99.90;;;;;;4862597;29;20452;-84
2021/03/22 01:35:09;;;;;;;15.53;5.80;;;3.30;99.90;;;;;;4881225;29;20444;-85
2021/03/22 01:37:34;;;;;;;15.67;7.00;;;3.20;99.90;;;;;;4864569;29;20836;-85
2021/03/22 01:40:00;;;;;;;19.87;7.20;;;3.20;99.90;;;;;;4869632;29;20484;-84
2021/03/22 01:42:57;;;;;;;19.73;7.10;;;3.40;99.90;;;;;;4865682;29;20205;-85
2021/03/22 01:45:23;;;;;;;23.53;7.07;;;3.30;99.90;;;;;;4861447;29;20631;-84
2021/03/22 01:47:48;;;;;;;16.20;5.60;;;3.40;99.90;;;;;;4867365;29;20552;-84
2021/03/22 01:50:27;;;;;;;15.83;6.70;;;3.30;99.90;;;;;;4863503;29;20224;-84
2021/03/22 01:52:54;;;;;;;13.10;6.20;;;3.40;99.90;;;;;;4869145;29;20197;-84
2021/03/22 01:55:22;;;;;;;23.57;7.10;;;3.30;99.90;;;;;;4866513;29;20453;-84
2021/03/22 01:57:48;;;;;;;14.03;5.70;;;3.30;99.90;;;;;;4869423;29;20906;-84
2021/03/22 02:00:28;;;;;;;16.93;5.70;;;3.40;99.90;;;;;;4869457;29;20468;-84
2021/03/22 02:03:17;;;;;;;14.23;6.23;;;3.50;99.90;;;;;;4866618;29;20483;-84
2021/03/22 02:05:49;;;;;;;16.80;5.13;;;3.50;99.90;;;;;;4871760;29;20446;-84
2021/03/22 02:08:23;;;;;;;23.70;7.60;;;3.60;99.90;;;;;;4866809;29;23134;-85
2021/03/22 02:10:49;;;;;;;18.97;5.93;;;3.50;99.90;;;;;;4872470;29;20531;-85
2021/03/22 02:13:20;;;;;;;13.17;5.63;;;3.60;99.90;;;;;;4869558;29;20457;-85
2021/03/22 02:15:52;;;;;;;17.00;5.63;;;3.60;99.90;;;;;;4866749;29;20449;-85
2021/03/22 02:18:36;;;;;;;17.33;5.83;;;3.60;99.90;;;;;;4870401;29;20470;-84
2021/03/22 02:21:29;;;;;;;15.70;4.47;;;3.60;99.90;;;;;;4867856;29;20968;-85
2021/03/22 02:24:14;;;;;;;21.43;5.10;;;3.70;99.90;;;;;;4885997;29;21064;-85
2021/03/22 02:26:46;;;;;;;18.80;5.47;;;3.70;99.90;;;;;;4882802;29;20464;-85
2021/03/22 02:29:43;;;;;;;15.10;5.37;;;3.70;99.90;;;;;;4869058;29;20444;-84
2021/03/22 02:32:30;;;;;;;17.10;5.60;;;3.80;99.90;;;;;;4869723;29;20445;-85
2021/03/22 02:35:04;;;;;;;16.30;5.30;;;3.80;99.90;;;;;;4869322;29;20458;-85
2021/03/22 02:38:10;;;;;;;13.90;6.40;;;3.80;99.90;;;;;;4862476;29;20481;-84
2021/03/22 02:40:45;;;;;;;11.20;4.50;;;3.80;99.90;;;;;;4825732;29;20456;-85
2021/03/22 02:43:10;;;;;;;16.77;5.10;;;3.80;99.90;;;;;;4867249;29;20802;-85
2021/03/22 02:45:40;;;;;;;17.00;5.90;;;3.80;99.90;;;;;;4859519;29;20465;-86
2021/03/22 02:48:08;;;;;;;13.87;5.50;;;3.80;99.90;;;;;;4876598;29;20826;-86
2021/03/22 02:50:41;;;;;;;13.33;4.77;;;3.70;99.90;;;;;;4870260;29;20453;-85
2021/03/22 02:53:28;;;;;;;13.67;6.00;;;3.70;99.90;;;;;;4875460;29;20466;-85
2021/03/22 02:56:04;;;;;;;17.60;5.20;;;3.80;99.90;;;;;;4863540;29;20457;-85
2021/03/22 02:58:48;;;;;;;11.00;4.37;;;3.70;99.90;;;;;;4874759;29;20453;-85
2021/03/22 03:01:29;;;;;;;15.93;5.37;;;3.70;99.90;;;;;;4863898;29;20895;-85
2021/03/22 03:03:57;;;;;;;17.63;4.57;;;3.80;99.90;;;;;;4869146;29;20444;-86
2021/03/22 03:06:45;;;;;;;19.40;6.33;;;3.70;99.90;;;;;;4865177;29;20458;-85
2021/03/22 03:09:12;;;;;;;19.07;6.40;;;3.70;99.90;;;;;;4865681;29;21096;-86
2021/03/22 03:11:38;;;;;;;19.03;5.70;;;3.70;99.90;;;;;;4866997;29;21038;-85
2021/03/22 03:14:04;;;;;;;12.90;4.70;;;3.70;99.90;;;;;;4867202;29;20476;-85
2021/03/22 03:16:33;;;;;;;9.20;4.47;;;3.70;99.90;;;;;;4869130;29;20217;-85
2021/03/22 03:18:59;;;;;;;16.80;5.63;;;3.70;99.90;;;;;;4868943;29;20450;-85
2021/03/22 03:21:25;;;;;;;11.13;5.70;;;3.70;99.90;;;;;;4868823;29;21001;-85
2021/03/22 03:23:51;;;;;;;20.57;5.83;;;3.70;99.90;;;;;;4868707;29;20447;-85
2021/03/22 03:26:17;;;;;;;14.17;4.83;;;3.60;99.90;;;;;;4868667;29;20454;-85
2021/03/22 03:28:43;;;;;;;17.00;5.43;;;3.60;99.90;;;;;;4867719;29;20984;-85
2021/03/22 03:31:10;;;;;;;16.63;4.67;;;3.60;99.90;;;;;;4867131;29;20246;-85
2021/03/22 03:33:36;;;;;;;10.97;4.03;;;3.60;99.90;;;;;;4868557;29;20252;-85
2021/03/22 03:36:05;;;;;;;18.50;5.07;;;3.60;99.90;;;;;;4869946;29;20531;-84
2021/03/22 03:38:30;;;;;;;21.47;5.20;;;3.70;99.90;;;;;;4864434;29;20628;-85
2021/03/22 03:40:56;;;;;;;16.97;4.47;;;3.60;99.90;;;;;;4883978;29;20484;-85
2021/03/22 03:43:24;;;;;;;13.10;4.53;;;3.60;99.90;;;;;;4863938;29;20880;-85
2021/03/22 03:45:52;;;;;;;13.40;5.00;;;3.60;99.90;;;;;;4864898;29;20906;-85
2021/03/22 03:48:25;;;;;;;14.03;4.27;;;3.60;99.90;;;;;;4867198;29;20521;-85
2021/03/22 03:50:54;;;;;;;12.30;3.90;;;3.60;99.90;;;;;;4867594;29;20446;-85
2021/03/22 03:53:20;;;;;;;16.50;4.40;;;3.60;99.90;;;;;;4868244;29;20467;-83
2021/03/22 03:55:46;;;;;;;15.20;5.03;;;3.60;99.90;;;;;;4868775;29;20458;-84
2021/03/22 03:58:21;;;;;;;14.73;4.63;;;3.70;99.90;;;;;;4863289;29;20474;-85
2021/03/22 04:00:49;;;;;;;13.20;4.17;;;3.70;99.90;;;;;;4863731;29;21256;-85
2021/03/22 04:03:24;;;;;;;10.83;4.10;;;3.70;99.90;;;;;;4869780;29;20457;-84
2021/03/22 04:06:14;;;;;;;12.43;3.20;;;3.70;99.90;;;;;;4884776;29;21519;-85
2021/03/22 04:08:56;;;;;;;14.00;4.07;;;3.60;99.90;;;;;;4838801;29;21457;-84
2021/03/22 04:11:29;;;;;;;13.00;4.27;;;3.60;99.90;;;;;;4870011;29;20552;-85
2021/03/22 04:14:07;;;;;;;15.00;4.50;;;3.60;99.90;;;;;;4869846;29;20931;-85
2021/03/22 04:16:36;;;;;;;16.73;5.17;;;3.60;99.90;;;;;;4879242;29;20576;-85
2021/03/22 04:19:02;;;;;;;13.07;3.60;;;3.50;99.90;;;;;;4865769;29;20589;-85
2021/03/22 04:21:31;;;;;;;15.73;4.60;;;3.60;99.90;;;;;;4866225;29;20730;-85
2021/03/22 04:23:58;;;;;;;10.13;3.80;;;3.60;99.90;;;;;;4878205;29;20456;-85
2021/03/22 04:26:24;;;;;;;14.37;4.67;;;3.50;99.90;;;;;;4868146;29;20991;-85
2021/03/22 04:28:57;;;;;;;16.63;5.50;;;3.50;99.90;;;;;;4867557;29;20446;-85
2021/03/22 04:31:26;;;;;;;11.30;4.23;;;3.50;99.90;;;;;;4865738;29;20709;-85
2021/03/22 04:33:53;;;;;;;16.90;4.57;;;3.50;99.90;;;;;;4863536;29;21047;-85
2021/03/22 04:36:21;;;;;;;12.60;4.23;;;3.60;99.90;;;;;;4879300;29;20509;-85
2021/03/22 04:39:02;;;;;;;14.17;5.40;;;3.60;99.90;;;;;;4875679;29;20624;-85
2021/03/22 04:41:31;;;;;;;26.93;11.57;;;3.60;99.90;;;;;;4870486;29;20959;-85
2021/03/22 04:43:56;;;;;;;19.57;7.03;;;3.50;99.90;;;;;;4865134;29;20855;-85
2021/03/22 04:46:22;;;;;;;24.40;9.40;;;3.50;99.90;;;;;;4881237;29;20861;-85
2021/03/22 04:48:48;;;;;;;16.57;6.30;;;3.50;99.90;;;;;;4881930;29;20251;-85
2021/03/22 04:51:14;;;;;;;12.73;3.80;;;3.40;99.90;;;;;;4877757;29;20960;-85
2021/03/22 04:53:40;;;;;;;14.10;5.30;;;3.50;99.90;;;;;;4864833;29;20532;-85
2021/03/22 04:56:08;;;;;;;13.40;3.77;;;3.60;99.90;;;;;;4860756;29;20222;-86
2021/03/22 04:58:35;;;;;;;12.97;3.63;;;3.50;99.90;;;;;;4864042;29;20251;-85
2021/03/22 05:01:01;;;;;;;7.57;3.57;;;3.60;99.90;;;;;;4860347;29;21047;-85
2021/03/22 05:03:27;;;;;;;11.70;3.90;;;3.60;99.90;;;;;;4864463;29;20461;-84
2021/03/22 05:05:52;;;;;;;9.97;4.40;;;3.60;99.90;;;;;;4863201;29;20472;-85
2021/03/22 05:08:21;;;;;;;8.70;4.30;;;3.60;99.90;;;;;;4863649;29;20199;-86
2021/03/22 05:10:50;;;;;;;13.13;3.00;;;3.50;99.90;;;;;;4862431;29;20195;-85
2021/03/22 05:13:17;;;;;;;9.50;3.40;;;3.50;99.90;;;;;;4865864;29;20469;-85
2021/03/22 05:15:53;;;;;;;11.10;2.77;;;3.50;99.90;;;;;;4862155;29;21064;-86
2021/03/22 05:18:22;;;;;;;12.23;3.40;;;3.50;99.90;;;;;;4861929;29;20492;-85
2021/03/22 05:20:51;;;;;;;17.87;3.47;;;3.60;99.90;;;;;;4848032;29;20486;-86
2021/03/22 05:23:24;;;;;;;13.57;3.07;;;3.60;99.90;;;;;;4869349;29;20796;-86
2021/03/22 05:25:51;;;;;;;10.10;3.30;;;3.60;99.90;;;;;;4875858;29;20487;-85
2021/03/22 05:28:18;;;;;;;10.13;2.67;;;3.60;99.90;;;;;;4871513;29;20445;-85
2021/03/22 05:30:44;;;;;;;9.20;3.23;;;3.60;99.90;;;;;;4871720;29;20453;-85
2021/03/22 05:33:13;;;;;;;7.63;2.67;;;3.60;99.90;;;;;;4869914;29;20452;-88
2021/03/22 05:35:40;;;;;;;5.60;2.83;;;3.60;99.90;;;;;;4870047;29;20293;-89
2021/03/22 05:38:07;;;;;;;12.43;3.37;;;3.60;99.90;;;;;;4868320;29;20485;-89
2021/03/22 05:40:59;;;;;;;12.93;4.27;;;3.70;99.90;;;;;;4872007;29;20452;-92
2021/03/22 05:43:40;;;;;;;12.27;3.60;;;3.70;99.90;;;;;;4873525;29;21400;-89
2021/03/22 05:46:27;;;;;;;12.47;2.93;;;3.80;99.90;;;;;;4868007;29;20505;-89
2021/03/22 05:49:31;;;;;;;12.07;3.73;;;3.60;99.90;;;;;;4873657;29;20527;-88
2021/03/22 05:52:21;;;;;;;13.23;3.43;;;3.60;99.90;;;;;;4859643;29;20451;-91
2021/03/22 05:55:24;;;;;;;11.33;4.13;;;3.60;99.90;;;;;;4885485;29;20470;-92
2021/03/22 05:58:23;;;;;;;11.07;3.23;;;3.60;99.90;;;;;;4874254;29;20485;-93
2021/03/22 06:00:48;;;;;;;15.03;4.03;;;3.60;99.90;;;;;;4871851;29;20450;-89
2021/03/22 06:03:30;;;;;;;23.40;12.33;;;3.60;99.90;;;;;;4877842;29;20496;-91
2021/03/22 06:06:26;;;;;;;12.23;3.97;;;3.70;99.90;;;;;;4878765;29;20205;-94
2021/03/22 06:09:07;;;;;;;11.70;5.17;;;3.80;99.90;;;;;;4877302;29;20469;-92
2021/03/22 06:11:32;;;;;;;15.63;8.30;;;3.80;99.90;;;;;;4875545;29;21445;-91
2021/03/22 06:17:38;;;;;;;14.80;5.60;;;3.90;99.90;;;;;;4893447;29;20249;-93
2021/03/22 06:20:21;;;;;;;9.40;3.20;;;3.90;99.90;;;;;;4884450;29;20474;-93
2021/03/22 06:22:47;;;;;;;9.13;3.50;;;3.90;99.90;;;;;;4875719;29;20445;-91
2021/03/22 06:25:24;;;;;;;7.00;4.10;;;4.00;99.90;;;;;;4877011;29;20441;-92
2021/03/22 06:27:54;;;;;;;8.60;5.37;;;3.90;99.90;;;;;;4887945;29;20504;-93
2021/03/22 06:30:23;;;;;;;11.63;3.17;;;3.90;99.90;;;;;;4876273;29;20456;-92
2021/03/22 06:32:53;;;;;;;9.03;3.20;;;4.00;99.90;;;;;;4867876;29;20485;-93
2021/03/22 06:35:25;;;;;;;10.17;2.70;;;3.90;99.90;;;;;;4858954;29;20466;-89
2021/03/22 06:37:53;;;;;;;9.20;1.77;;;3.90;99.90;;;;;;4889735;29;20488;-91
2021/03/22 06:40:25;;;;;;;13.10;3.00;;;3.90;99.90;;;;;;4870487;29;20535;-91
2021/03/22 06:43:22;;;;;;;13.00;3.60;;;3.90;99.90;;;;;;4886852;29;20489;-91
2021/03/22 06:46:09;;;;;;;13.10;3.47;;;4.00;99.90;;;;;;4857399;29;20522;-89
2021/03/22 06:48:36;;;;;;;5.47;3.00;;;4.00;99.90;;;;;;4897824;29;20437;-95
2021/03/22 06:51:20;;;;;;;7.93;3.20;;;3.90;99.90;;;;;;4905888;29;20445;-93
2021/03/22 06:54:11;;;;;;;10.87;2.67;;;3.90;99.90;;;;;;4881653;29;20453;-96
2021/03/22 06:56:38;;;;;;;11.07;3.80;;;3.90;99.90;;;;;;4858572;29;20495;-91
2021/03/22 06:59:21;;;;;;;11.27;3.13;;;4.00;99.90;;;;;;4870160;29;20450;-90
2021/03/22 07:02:45;;;;;;;8.57;3.53;;;4.00;99.90;;;;;;4874830;29;20488;-96
2021/03/22 07:14:27;;;;;;;6.63;2.33;;;4.20;99.90;;;;;;4874335;29;20524;-88
2021/03/22 07:17:07;;;;;;;12.03;3.23;;;4.20;99.90;;;;;;4866962;29;20527;-87
2021/03/22 07:19:33;;;;;;;13.73;3.40;;;4.10;99.90;;;;;;4863464;29;20452;-86
2021/03/22 07:22:05;;;;;;;11.57;2.90;;;4.20;99.90;;;;;;4868882;29;21135;-88
2021/03/22 07:24:50;;;;;;;9.13;2.93;;;4.30;99.90;;;;;;4866917;29;21049;-88
2021/03/22 07:27:32;;;;;;;11.40;3.47;;;4.40;99.90;;;;;;4861707;29;20875;-88
2021/03/22 07:30:26;;;;;;;14.83;3.30;;;4.40;99.90;;;;;;4862173;29;20968;-88
2021/03/22 07:33:04;;;;;;;16.03;4.30;;;4.30;99.90;;;;;;4868097;29;20951;-88
2021/03/22 07:35:52;;;;;;;18.33;3.40;;;4.30;99.90;;;;;;4868884;29;20448;-89
2021/03/22 07:38:54;;;;;;;15.83;4.47;;;4.30;99.90;;;;;;4866242;29;20489;-87
2021/03/22 07:41:35;;;;;;;16.53;4.17;;;4.50;99.90;;;;;;4862127;29;20856;-90
2021/03/22 07:44:25;;;;;;;12.97;3.70;;;4.50;99.90;;;;;;4865968;29;20848;-86
2021/03/22 07:46:57;;;;;;;9.43;3.40;;;4.30;99.90;;;;;;4868778;29;20446;-87
2021/03/22 07:49:37;;;;;;;15.83;3.27;;;4.30;99.90;;;;;;4870296;29;20459;-87
2021/03/22 07:52:38;;;;;;;13.57;4.30;;;4.50;99.90;;;;;;4865741;29;20474;-85
2021/03/22 07:55:48;;;;;;;9.47;3.10;;;4.50;99.90;;;;;;4865856;29;20461;-86
2021/03/22 07:58:18;;;;;;;15.27;3.60;;;4.50;99.90;;;;;;4848466;29;20488;-86
2021/03/22 08:01:05;;;;;;;13.73;3.30;;;4.70;99.90;;;;;;4868405;29;20469;-87
2021/03/22 08:03:44;;;;;;;10.20;3.33;;;4.80;99.90;;;;;;4873617;29;20884;-86
2021/03/22 08:06:28;;;;;;;10.30;3.30;;;4.80;99.90;;;;;;4869218;29;21949;-86
2021/03/22 08:09:17;;;;;;;16.83;3.73;;;4.70;99.90;;;;;;4866384;29;20475;-86
2021/03/22 08:11:50;;;;;;;13.53;3.57;;;4.60;99.90;;;;;;4867176;29;20978;-85
2021/03/22 08:14:38;;;;;;;14.57;4.47;;;4.70;99.90;;;;;;4867649;29;21609;-86
2021/03/22 08:17:03;;;;;;;11.30;3.50;;;5.00;99.90;;;;;;4881183;29;20834;-85
2021/03/22 08:20:06;;;;;;;9.07;3.50;;;5.10;99.90;;;;;;4879003;29;20517;-84
2021/03/22 08:22:50;;;;;;;8.27;3.50;;;5.20;99.90;;;;;;4811495;29;20207;-84
2021/03/22 08:25:28;;;;;;;10.37;3.40;;;5.20;99.90;;;;;;4865268;29;20452;-84
2021/03/22 08:28:03;;;;;;;10.47;3.20;;;5.00;99.90;;;;;;4863484;29;20460;-85
2021/03/22 08:30:47;;;;;;;13.80;4.23;;;5.00;99.90;;;;;;4860613;29;20944;-86
2021/03/22 08:33:38;;;;;;;11.53;3.57;;;5.10;99.90;;;;;;4866479;29;20994;-85
2021/03/22 08:36:26;;;;;;;10.53;4.10;;;4.80;99.90;;;;;;4878993;29;20459;-85
2021/03/22 08:39:01;;;;;;;9.53;3.40;;;4.90;99.90;;;;;;4863672;29;20469;-85
2021/03/22 08:41:29;;;;;;;9.80;3.20;;;4.80;99.90;;;;;;4864101;29;20556;-85
2021/03/22 08:44:07;;;;;;;7.30;3.10;;;4.80;99.90;;;;;;4865412;29;20852;-86
2021/03/22 08:47:02;;;;;;;11.30;3.37;;;4.90;99.90;;;;;;4865987;29;20453;-87
2021/03/22 08:49:45;;;;;;;11.97;3.47;;;5.00;99.90;;;;;;4863827;29;20446;-86
2021/03/22 08:52:30;;;;;;;10.93;3.60;;;5.10;99.90;;;;;;4876664;29;20464;-86
2021/03/22 08:55:03;;;;;;;6.53;3.03;;;5.30;99.90;;;;;;4882759;29;20469;-87
2021/03/22 08:58:24;;;;;;;11.60;4.13;;;5.50;99.90;;;;;;4863970;29;20485;-92
2021/03/22 09:00:55;;;;;;;8.10;2.70;;;5.70;99.90;;;;;;4826813;29;20550;-85
2021/03/22 09:03:33;;;;;;;7.93;2.50;;;6.00;99.90;;;;;;4842880;29;20433;-85
2021/03/22 09:06:23;;;;;;;17.60;2.83;;;5.90;99.90;;;;;;4864736;29;21014;-88
2021/03/22 09:08:53;;;;;;;9.30;2.47;;;6.00;99.90;;;;;;4869069;29;20454;-87
2021/03/22 09:11:28;;;;;;;7.93;2.53;;;6.20;99.90;;;;;;4877866;29;20452;-87
2021/03/22 09:14:17;;;;;;;6.30;2.70;;;6.20;99.90;;;;;;4873007;29;20445;-86
2021/03/22 09:16:48;;;;;;;7.03;2.10;;;6.00;99.90;;;;;;4873426;29;20468;-83
2021/03/22 09:19:17;;;;;;;11.50;2.73;;;5.70;99.90;;;;;;4885257;29;20456;-86
2021/03/22 09:22:00;;;;;;;5.87;2.50;;;5.60;99.90;;;;;;4885477;29;20456;-84
2021/03/22 09:24:43;;;;;;;5.93;2.03;;;5.40;99.90;;;;;;4882530;29;20461;-85
2021/03/22 09:30:04;;;;;;;8.50;2.93;;;5.60;99.90;;;;;;4879670;29;20448;-84
2021/03/22 09:32:34;;;;;;;8.40;2.47;;;5.50;99.90;;;;;;4880478;29;20496;-85
2021/03/22 09:35:15;;;;;;;3.80;1.80;;;5.10;99.90;;;;;;4868968;29;20812;-85
2021/03/22 09:37:52;;;;;;;7.00;2.87;;;5.00;99.90;;;;;;4865992;29;20500;-86
2021/03/22 09:40:21;;;;;;;6.77;2.50;;;4.90;99.90;;;;;;4867144;29;20461;-86
2021/03/22 09:43:05;;;;;;;6.43;2.23;;;5.10;99.90;;;;;;4868111;29;20449;-86
2021/03/22 09:45:34;;;;;;;12.10;2.90;;;5.20;99.90;;;;;;4866394;29;20441;-86
2021/03/22 09:48:25;;;;;;;10.30;3.37;;;5.50;99.90;;;;;;4867873;29;20489;-86
2021/03/22 09:51:12;;;;;;;8.47;2.83;;;5.90;99.90;;;;;;4879669;29;20453;-85
2021/03/22 09:53:56;;;;;;;11.27;3.50;;;6.00;99.90;;;;;;4864461;29;20449;-85
2021/03/22 09:56:24;;;;;;;7.10;2.67;;;6.00;99.90;;;;;;4866389;29;20441;-86
2021/03/22 09:58:51;;;;;;;10.13;2.60;;;6.00;99.90;;;;;;4868526;29;20457;-85
2021/03/22 10:01:28;;;;;;;5.03;2.83;;;6.20;99.90;;;;;;4863008;29;20450;-86
2021/03/22 10:04:13;;;;;;;9.13;3.37;;;6.20;99.90;;;;;;4868565;29;20544;-85
2021/03/22 10:06:44;;;;;;;17.00;3.50;;;6.00;99.90;;;;;;4866129;29;20497;-85
2021/03/22 10:09:37;;;;;;;4.80;2.23;;;5.90;99.90;;;;;;4871548;29;20484;-85
2021/03/22 10:12:12;;;;;;;6.77;4.70;;;6.00;99.90;;;;;;4860017;29;20468;-85
2021/03/22 10:14:42;;;;;;;3.03;2.20;;;6.00;99.90;;;;;;4878106;29;20457;-85
2021/03/22 10:17:30;;;;;;;8.10;3.20;;;6.10;99.90;;;;;;4870260;29;20485;-86
2021/03/22 10:20:03;;;;;;;10.33;2.20;;;6.20;99.90;;;;;;4874713;29;20445;-85
2021/03/22 10:22:29;;;;;;;9.00;2.60;;;5.90;99.90;;;;;;4870040;29;20836;-86
2021/03/22 10:25:06;;;;;;;6.70;3.10;;;5.50;99.90;;;;;;4869442;29;20450;-85
2021/03/22 10:27:35;;;;;;;7.70;2.83;;;5.30;99.90;;;;;;4868242;29;20260;-85
2021/03/22 10:30:10;;;;;;;8.07;2.93;;;5.30;99.90;;;;;;4886029;29;20559;-86
2021/03/22 10:32:41;;;;;;;6.43;2.73;;;5.50;99.90;;;;;;4870315;29;20531;-86
2021/03/22 10:35:17;;;;;;;9.70;3.10;;;5.60;99.90;;;;;;4868638;29;20471;-85
2021/03/22 10:37:52;;;;;;;9.27;3.37;;;5.60;99.90;;;;;;4870356;29;20518;-86
2021/03/22 10:40:29;;;;;;;11.63;3.10;;;5.80;99.90;;;;;;4870671;29;20456;-85
2021/03/22 10:42:57;;;;;;;5.50;2.60;;;6.20;99.90;;;;;;4867638;29;20533;-85
2021/03/22 10:45:35;;;;;;;6.50;2.10;;;6.50;99.90;;;;;;4885580;29;20468;-86
2021/03/22 10:48:19;;;;;;;4.10;2.10;;;6.60;99.90;;;;;;4867935;29;20448;-85
2021/03/22 10:50:44;;;;;;;6.50;2.50;;;6.50;99.90;;;;;;4869712;29;20811;-86
2021/03/22 10:53:15;;;;;;;4.90;2.50;;;6.50;99.90;;;;;;4868510;29;20460;-86
2021/03/22 10:55:44;;;;;;;3.47;2.13;;;6.70;99.90;;;;;;4881217;29;20202;-85
2021/03/22 10:58:26;;;;;;;5.17;2.60;;;6.80;99.50;;;;;;4862909;29;20490;-88
2021/03/22 11:01:05;;;;;;;7.50;1.93;;;6.80;98.80;;;;;;4878317;29;20453;-85
2021/03/22 11:03:33;;;;;;;69.93;51.73;;;6.40;98.80;;;;;;4871383;29;20536;-85
2021/03/22 11:05:59;;;;;;;6.73;3.23;;;6.50;99.90;;;;;;4867932;29;20500;-86
2021/03/22 11:08:37;;;;;;;6.63;2.60;;;6.80;99.90;;;;;;4874340;29;20487;-85
2021/03/22 11:11:13;;;;;;;6.87;2.93;;;6.80;99.90;;;;;;4856470;29;20515;-86
2021/03/22 11:13:44;;;;;;;3.00;2.50;;;7.00;99.10;;;;;;4864966;29;20463;-86
2021/03/22 11:16:29;;;;;;;7.37;2.80;;;7.20;98.90;;;;;;4862764;29;20519;-85
2021/03/22 11:18:57;;;;;;;8.27;2.40;;;7.30;99.60;;;;;;4865156;29;20490;-85
2021/03/22 11:21:24;;;;;;;8.80;2.67;;;7.10;98.00;;;;;;4860803;29;20471;-84
2021/03/22 11:23:53;;;;;;;5.50;2.23;;;7.00;98.40;;;;;;4864419;29;21598;-84
2021/03/22 11:26:24;;;;;;;4.80;2.23;;;7.00;98.80;;;;;;4860838;29;20475;-83
2021/03/22 11:28:50;;;;;;;6.60;3.30;;;6.50;98.50;;;;;;4868103;29;20583;-85
2021/03/22 11:31:46;;;;;;;5.67;3.03;;;6.40;99.90;;;;;;4864869;29;20518;-85
2021/03/22 11:34:14;;;;;;;11.70;5.57;;;6.50;99.80;;;;;;4846459;29;20441;-85
2021/03/22 11:36:43;;;;;;;13.57;6.53;;;6.70;99.50;;;;;;4865208;29;20898;-84
2021/03/22 11:39:11;;;;;;;7.87;3.87;;;6.90;99.60;;;;;;4863451;29;21573;-84
2021/03/22 11:41:39;;;;;;;6.30;2.63;;;7.00;98.20;;;;;;4882502;29;20476;-83
2021/03/22 11:44:17;;;;;;;8.70;3.00;;;6.80;98.30;;;;;;4864271;29;20887;-83
2021/03/22 11:46:51;;;;;;;10.53;3.40;;;6.80;98.80;;;;;;4865123;29;20541;-83
2021/03/22 11:49:40;;;;;;;8.00;3.23;;;6.70;99.10;;;;;;4857600;29;20515;-84
2021/03/22 11:52:41;;;;;;;2.30;1.80;;;6.60;99.90;;;;;;4859461;29;20453;-82
2021/03/22 11:55:27;;;;;;;5.93;1.70;;;6.70;97.60;;;;;;4782464;29;20594;-83
2021/03/22 11:57:53;;;;;;;4.50;2.00;;;7.20;96.90;;;;;;4860296;29;20495;-84
2021/03/22 12:00:27;;;;;;;4.17;2.20;;;7.30;97.50;;;;;;4863013;29;20452;-86
2021/03/22 12:03:02;;;;;;;4.00;1.83;;;7.30;96.50;;;;;;4860896;29;20759;-86
2021/03/22 12:05:30;;;;;;;5.33;2.13;;;7.80;97.10;;;;;;4853367;29;20547;-87
2021/03/22 12:07:56;;;;;;;5.43;2.60;;;7.80;95.10;;;;;;4858249;29;20710;-86
2021/03/22 12:10:31;;;;;;;6.10;2.33;;;7.60;95.60;;;;;;4866107;29;20892;-86
2021/03/22 12:12:59;;;;;;;6.37;2.33;;;7.40;97.20;;;;;;4865257;29;20460;-86
2021/03/22 12:15:25;;;;;;;5.53;2.90;;;7.10;98.50;;;;;;4864502;29;20515;-86
2021/03/22 12:18:03;;;;;;;6.53;3.07;;;7.00;99.00;;;;;;4879127;29;20482;-87
2021/03/22 12:20:31;;;;;;;2.70;2.10;;;7.20;98.10;;;;;;4870432;29;20457;-87
2021/03/22 12:22:57;;;;;;;5.20;2.30;;;7.40;97.20;;;;;;4864840;29;20666;-88
2021/03/22 12:25:28;;;;;;;4.30;2.50;;;7.60;96.70;;;;;;4874298;29;20473;-88
2021/03/22 12:27:55;;;;;;;5.77;2.80;;;7.50;96.50;;;;;;4874906;29;20472;-86
2021/03/22 12:30:22;;;;;;;4.27;1.83;;;7.60;97.40;;;;;;4862522;29;20502;-87
2021/03/22 12:32:48;;;;;;;3.67;2.17;;;8.10;95.70;;;;;;4868190;29;20453;-87
2021/03/22 12:35:27;;;;;;;11.50;2.37;;;8.30;95.50;;;;;;4865080;29;20473;-86
2021/03/22 12:37:53;;;;;;;6.90;1.50;;;8.20;93.00;;;;;;4863746;29;20496;-87
2021/03/22 12:40:19;;;;;;;3.87;1.40;;;8.00;91.80;;;;;;4861670;29;20460;-87
2021/03/22 12:42:49;;;;;;;2.90;1.50;;;7.80;93.90;;;;;;4861023;29;20695;-86
2021/03/22 12:45:26;;;;;;;2.90;1.87;;;8.00;93.70;;;;;;4879680;29;20511;-86
2021/03/22 12:47:53;;;;;;;3.50;1.43;;;7.50;93.30;;;;;;4857349;29;20463;-86
2021/03/22 12:50:34;;;;;;;2.57;2.10;;;7.30;94.00;;;;;;4864862;29;20787;-87
2021/03/22 12:53:00;;;;;;;3.00;2.07;;;7.00;95.00;;;;;;4863064;29;20544;-86
2021/03/22 12:55:29;;;;;;;4.13;1.93;;;6.90;95.70;;;;;;4861820;29;20685;-87
2021/03/22 12:57:56;;;;;;;4.63;1.60;;;7.00;95.70;;;;;;4860627;29;20499;-88
2021/03/22 13:00:25;;;;;;;5.57;2.40;;;6.90;95.80;;;;;;4860513;29;20505;-88
2021/03/22 13:02:51;;;;;;;2.60;1.70;;;6.90;95.70;;;;;;4859355;29;21149;-87
2021/03/22 13:05:26;;;;;;;2.03;1.80;;;6.90;96.10;;;;;;4862762;29;21233;-87
2021/03/22 13:07:53;;;;;;;3.77;2.33;;;6.90;96.20;;;;;;4861913;29;20463;-86
2021/03/22 13:10:21;;;;;;;3.10;1.70;;;6.80;96.70;;;;;;4862650;29;20501;-86
2021/03/22 13:12:48;;;;;;;5.93;3.20;;;6.60;96.80;;;;;;4868207;29;20533;-85
2021/03/22 13:15:38;;;;;;;4.53;2.37;;;6.40;97.20;;;;;;4865395;29;20474;-87
2021/03/22 13:18:29;;;;;;;4.67;1.77;;;6.20;97.90;;;;;;4865757;29;20856;-86
2021/03/22 13:20:57;;;;;;;4.13;2.00;;;6.30;98.30;;;;;;4872895;29;20481;-86
2021/03/22 13:23:24;;;;;;;6.53;2.10;;;6.20;98.40;;;;;;4861387;29;21197;-86
2021/03/22 13:25:52;;;;;;;2.33;2.13;;;6.20;98.90;;;;;;4866516;29;20447;-86
2021/03/22 13:28:38;;;;;;;7.90;2.17;;;6.30;99.80;;;;;;4867938;29;20434;-87
2021/03/22 13:31:06;;;;;;;4.17;1.80;;;6.40;99.60;;;;;;4868092;29;20446;-87
2021/03/22 13:33:35;;;;;;;7.53;2.83;;;6.30;99.40;;;;;;4861824;29;20453;-86
2021/03/22 13:36:02;;;;;;;5.43;2.30;;;6.20;99.80;;;;;;4871914;29;20452;-85
2021/03/22 13:38:30;;;;;;;4.00;2.27;;;6.10;99.90;;;;;;4864834;29;20488;-86
2021/03/22 13:40:58;;;;;;;6.50;2.47;;;6.00;99.90;;;;;;4864319;29;20454;-83
2021/03/22 13:43:26;;;;;;;2.67;2.10;;;6.00;99.90;;;;;;4868244;29;20589;-85